sensor_id;sensor_type;location;lat;lon;timestamp;P1;durP1;ratioP1;P2;durP2;ratioP2
56999;SDS011;42891;50.006;21.964;2023-06-10T00:03:20;10.65;;;8.02;;
56999;SDS011;42891;50.006;21.964;2023-06-10T00:07:23;10.32;;;8.05;;
56999;SDS011;42891;50.006;21.964;2023-06-10T00:11:23;11.23;;;8.68;;
56999;SDS011;42891;50.006;21.964;2023-06-10T00:15:23;13.87;;;8.73;;
56999;SDS011;42891;50.006;21.964;2023-06-10T00:19:24;12.52;;;8.25;;
56999;SDS011;42891;50.006;21.964;2023-06-10T00:23:25;12.00;;;8.50;;
56999;SDS011;42891;50.006;21.964;2023-06-10T00:27:25;10.00;;;7.17;;
56999;SDS011;42891;50.006;21.964;2023-06-10T00:31:31;11.63;;;7.80;;
56999;SDS011;42891;50.006;21.964;2023-06-10T00:35:31;11.55;;;8.55;;
56999;SDS011;42891;50.006;21.964;2023-06-10T00:39:31;10.48;;;8.65;;
56999;SDS011;42891;50.006;21.964;2023-06-10T00:43:32;12.97;;;8.47;;
56999;SDS011;42891;50.006;21.964;2023-06-10T00:47:32;12.68;;;9.10;;
56999;SDS011;42891;50.006;21.964;2023-06-10T00:51:32;13.00;;;9.17;;
56999;SDS011;42891;50.006;21.964;2023-06-10T00:55:33;14.05;;;10.27;;
56999;SDS011;42891;50.006;21.964;2023-06-10T00:59:34;12.77;;;10.38;;
56999;SDS011;42891;50.006;21.964;2023-06-10T01:03:35;14.75;;;10.93;;
56999;SDS011;42891;50.006;21.964;2023-06-10T01:07:38;16.95;;;11.25;;
56999;SDS011;42891;50.006;21.964;2023-06-10T01:11:51;14.65;;;11.85;;
56999;SDS011;42891;50.006;21.964;2023-06-10T01:15:58;12.70;;;10.93;;
56999;SDS011;42891;50.006;21.964;2023-06-10T01:19:59;15.75;;;11.13;;
56999;SDS011;42891;50.006;21.964;2023-06-10T01:23:59;15.90;;;11.55;;
56999;SDS011;42891;50.006;21.964;2023-06-10T01:32:15;16.63;;;12.45;;
56999;SDS011;42891;50.006;21.964;2023-06-10T01:36:17;15.48;;;12.95;;
56999;SDS011;42891;50.006;21.964;2023-06-10T01:40:18;17.02;;;13.07;;
56999;SDS011;42891;50.006;21.964;2023-06-10T01:44:20;17.40;;;12.77;;
56999;SDS011;42891;50.006;21.964;2023-06-10T01:48:21;14.80;;;12.35;;
56999;SDS011;42891;50.006;21.964;2023-06-10T01:52:22;22.20;;;14.53;;
56999;SDS011;42891;50.006;21.964;2023-06-10T01:56:22;15.30;;;12.60;;
56999;SDS011;42891;50.006;21.964;2023-06-10T02:00:22;15.02;;;12.40;;
56999;SDS011;42891;50.006;21.964;2023-06-10T02:04:23;16.77;;;12.57;;
56999;SDS011;42891;50.006;21.964;2023-06-10T02:08:23;13.38;;;11.73;;
56999;SDS011;42891;50.006;21.964;2023-06-10T02:12:24;16.08;;;12.25;;
56999;SDS011;42891;50.006;21.964;2023-06-10T02:16:24;14.95;;;11.27;;
56999;SDS011;42891;50.006;21.964;2023-06-10T02:20:26;12.05;;;10.23;;
56999;SDS011;42891;50.006;21.964;2023-06-10T02:24:27;14.90;;;9.75;;
56999;SDS011;42891;50.006;21.964;2023-06-10T02:28:27;11.83;;;10.10;;
56999;SDS011;42891;50.006;21.964;2023-06-10T02:32:27;14.15;;;10.02;;
56999;SDS011;42891;50.006;21.964;2023-06-10T02:36:28;12.30;;;10.93;;
56999;SDS011;42891;50.006;21.964;2023-06-10T02:40:28;16.58;;;12.10;;
56999;SDS011;42891;50.006;21.964;2023-06-10T02:44:29;15.85;;;11.07;;
56999;SDS011;42891;50.006;21.964;2023-06-10T02:48:29;13.18;;;10.93;;
56999;SDS011;42891;50.006;21.964;2023-06-10T02:52:29;17.27;;;13.07;;
56999;SDS011;42891;50.006;21.964;2023-06-10T02:56:31;17.58;;;13.50;;
56999;SDS011;42891;50.006;21.964;2023-06-10T03:00:33;16.70;;;12.82;;
56999;SDS011;42891;50.006;21.964;2023-06-10T03:04:33;20.83;;;14.07;;
56999;SDS011;42891;50.006;21.964;2023-06-10T03:08:33;16.88;;;13.07;;
56999;SDS011;42891;50.006;21.964;2023-06-10T03:12:34;16.48;;;12.57;;
56999;SDS011;42891;50.006;21.964;2023-06-10T03:16:34;14.38;;;12.18;;
56999;SDS011;42891;50.006;21.964;2023-06-10T03:20:35;16.25;;;12.75;;
56999;SDS011;42891;50.006;21.964;2023-06-10T03:24:37;18.30;;;14.65;;
56999;SDS011;42891;50.006;21.964;2023-06-10T03:28:40;20.88;;;16.20;;
56999;SDS011;42891;50.006;21.964;2023-06-10T03:32:40;18.95;;;14.27;;
56999;SDS011;42891;50.006;21.964;2023-06-10T03:36:41;22.27;;;15.65;;
56999;SDS011;42891;50.006;21.964;2023-06-10T03:40:42;18.33;;;14.65;;
56999;SDS011;42891;50.006;21.964;2023-06-10T03:44:43;18.63;;;13.18;;
56999;SDS011;42891;50.006;21.964;2023-06-10T03:48:43;16.07;;;13.47;;
56999;SDS011;42891;50.006;21.964;2023-06-10T03:52:44;20.05;;;14.82;;
56999;SDS011;42891;50.006;21.964;2023-06-10T03:56:45;19.25;;;15.27;;
56999;SDS011;42891;50.006;21.964;2023-06-10T04:00:45;19.57;;;15.43;;
56999;SDS011;42891;50.006;21.964;2023-06-10T04:04:46;16.98;;;14.75;;
56999;SDS011;42891;50.006;21.964;2023-06-10T04:08:47;18.63;;;12.90;;
56999;SDS011;42891;50.006;21.964;2023-06-10T04:12:47;15.43;;;11.88;;
56999;SDS011;42891;50.006;21.964;2023-06-10T04:16:47;18.70;;;12.70;;
56999;SDS011;42891;50.006;21.964;2023-06-10T04:20:48;14.30;;;11.77;;
56999;SDS011;42891;50.006;21.964;2023-06-10T04:24:48;12.15;;;10.02;;
56999;SDS011;42891;50.006;21.964;2023-06-10T04:28:48;15.47;;;11.93;;
56999;SDS011;42891;50.006;21.964;2023-06-10T04:32:49;15.30;;;11.38;;
56999;SDS011;42891;50.006;21.964;2023-06-10T04:36:49;13.85;;;10.45;;
56999;SDS011;42891;50.006;21.964;2023-06-10T04:40:50;11.27;;;10.07;;
56999;SDS011;42891;50.006;21.964;2023-06-10T04:44:51;11.30;;;9.77;;
56999;SDS011;42891;50.006;21.964;2023-06-10T04:48:51;12.75;;;10.63;;
56999;SDS011;42891;50.006;21.964;2023-06-10T04:52:52;11.45;;;9.95;;
56999;SDS011;42891;50.006;21.964;2023-06-10T04:56:52;11.17;;;9.43;;
56999;SDS011;42891;50.006;21.964;2023-06-10T05:00:52;12.93;;;10.00;;
56999;SDS011;42891;50.006;21.964;2023-06-10T05:04:53;11.77;;;9.90;;
56999;SDS011;42891;50.006;21.964;2023-06-10T05:08:55;12.25;;;10.48;;
56999;SDS011;42891;50.006;21.964;2023-06-10T05:12:55;17.23;;;10.65;;
56999;SDS011;42891;50.006;21.964;2023-06-10T05:16:55;10.60;;;9.30;;
56999;SDS011;42891;50.006;21.964;2023-06-10T05:20:56;12.57;;;10.05;;
56999;SDS011;42891;50.006;21.964;2023-06-10T05:24:56;12.75;;;9.93;;
56999;SDS011;42891;50.006;21.964;2023-06-10T05:28:57;13.52;;;11.32;;
56999;SDS011;42891;50.006;21.964;2023-06-10T05:32:57;10.93;;;9.60;;
56999;SDS011;42891;50.006;21.964;2023-06-10T05:36:57;13.40;;;9.98;;
56999;SDS011;42891;50.006;21.964;2023-06-10T05:40:58;12.43;;;9.82;;
56999;SDS011;42891;50.006;21.964;2023-06-10T05:44:59;11.80;;;9.60;;
56999;SDS011;42891;50.006;21.964;2023-06-10T05:48:59;12.32;;;9.98;;
56999;SDS011;42891;50.006;21.964;2023-06-10T05:52:59;11.83;;;9.47;;
56999;SDS011;42891;50.006;21.964;2023-06-10T05:56:59;12.23;;;9.40;;
56999;SDS011;42891;50.006;21.964;2023-06-10T06:01:00;12.55;;;9.82;;
56999;SDS011;42891;50.006;21.964;2023-06-10T06:05:00;14.38;;;10.32;;
56999;SDS011;42891;50.006;21.964;2023-06-10T06:09:01;11.05;;;9.48;;
56999;SDS011;42891;50.006;21.964;2023-06-10T06:13:01;11.93;;;9.37;;
56999;SDS011;42891;50.006;21.964;2023-06-10T06:17:02;12.80;;;9.93;;
56999;SDS011;42891;50.006;21.964;2023-06-10T06:21:02;10.57;;;9.48;;
56999;SDS011;42891;50.006;21.964;2023-06-10T06:25:03;11.97;;;9.27;;
56999;SDS011;42891;50.006;21.964;2023-06-10T06:29:03;11.48;;;9.00;;
56999;SDS011;42891;50.006;21.964;2023-06-10T06:33:04;10.38;;;9.38;;
56999;SDS011;42891;50.006;21.964;2023-06-10T06:37:04;11.40;;;9.75;;
56999;SDS011;42891;50.006;21.964;2023-06-10T06:41:05;11.45;;;9.35;;
56999;SDS011;42891;50.006;21.964;2023-06-10T06:45:06;11.02;;;9.15;;
56999;SDS011;42891;50.006;21.964;2023-06-10T06:49:07;16.27;;;9.30;;
56999;SDS011;42891;50.006;21.964;2023-06-10T06:53:07;17.80;;;9.37;;
56999;SDS011;42891;50.006;21.964;2023-06-10T06:57:07;10.20;;;8.95;;
56999;SDS011;42891;50.006;21.964;2023-06-10T07:01:08;12.15;;;9.52;;
56999;SDS011;42891;50.006;21.964;2023-06-10T07:05:08;11.23;;;9.27;;
56999;SDS011;42891;50.006;21.964;2023-06-10T07:09:09;14.82;;;9.10;;
56999;SDS011;42891;50.006;21.964;2023-06-10T07:13:09;10.57;;;8.57;;
56999;SDS011;42891;50.006;21.964;2023-06-10T07:17:10;11.30;;;8.25;;
56999;SDS011;42891;50.006;21.964;2023-06-10T07:21:10;9.40;;;8.35;;
56999;SDS011;42891;50.006;21.964;2023-06-10T07:25:10;14.13;;;8.50;;
56999;SDS011;42891;50.006;21.964;2023-06-10T07:29:11;10.20;;;8.38;;
56999;SDS011;42891;50.006;21.964;2023-06-10T07:33:11;10.23;;;7.97;;
56999;SDS011;42891;50.006;21.964;2023-06-10T07:37:11;12.77;;;8.75;;
56999;SDS011;42891;50.006;21.964;2023-06-10T07:41:12;9.02;;;7.93;;
56999;SDS011;42891;50.006;21.964;2023-06-10T07:45:12;10.30;;;9.20;;
56999;SDS011;42891;50.006;21.964;2023-06-10T07:49:13;9.73;;;8.73;;
56999;SDS011;42891;50.006;21.964;2023-06-10T07:53:13;12.77;;;8.60;;
56999;SDS011;42891;50.006;21.964;2023-06-10T07:57:13;9.55;;;8.55;;
56999;SDS011;42891;50.006;21.964;2023-06-10T08:01:14;9.00;;;7.65;;
56999;SDS011;42891;50.006;21.964;2023-06-10T08:05:14;12.23;;;7.43;;
56999;SDS011;42891;50.006;21.964;2023-06-10T08:09:14;9.35;;;7.40;;
56999;SDS011;42891;50.006;21.964;2023-06-10T08:13:15;9.38;;;6.93;;
56999;SDS011;42891;50.006;21.964;2023-06-10T08:17:16;8.68;;;7.18;;
56999;SDS011;42891;50.006;21.964;2023-06-10T08:21:16;8.50;;;7.15;;
56999;SDS011;42891;50.006;21.964;2023-06-10T08:25:17;11.32;;;7.63;;
56999;SDS011;42891;50.006;21.964;2023-06-10T08:29:17;8.50;;;7.65;;
56999;SDS011;42891;50.006;21.964;2023-06-10T08:33:17;9.73;;;7.55;;
56999;SDS011;42891;50.006;21.964;2023-06-10T08:37:18;10.93;;;8.13;;
56999;SDS011;42891;50.006;21.964;2023-06-10T08:41:18;8.43;;;7.13;;
56999;SDS011;42891;50.006;21.964;2023-06-10T08:45:20;9.00;;;7.63;;
56999;SDS011;42891;50.006;21.964;2023-06-10T08:49:23;12.02;;;8.15;;
56999;SDS011;42891;50.006;21.964;2023-06-10T08:53:26;9.23;;;6.93;;
56999;SDS011;42891;50.006;21.964;2023-06-10T08:57:29;8.85;;;6.97;;
56999;SDS011;42891;50.006;21.964;2023-06-10T09:01:30;7.80;;;6.55;;
56999;SDS011;42891;50.006;21.964;2023-06-10T09:05:34;8.98;;;7.07;;
56999;SDS011;42891;50.006;21.964;2023-06-10T09:09:36;8.35;;;6.90;;
56999;SDS011;42891;50.006;21.964;2023-06-10T09:13:37;8.48;;;7.30;;
56999;SDS011;42891;50.006;21.964;2023-06-10T09:17:37;9.05;;;7.10;;
56999;SDS011;42891;50.006;21.964;2023-06-10T09:21:40;8.07;;;6.68;;
56999;SDS011;42891;50.006;21.964;2023-06-10T09:25:40;7.90;;;6.43;;
56999;SDS011;42891;50.006;21.964;2023-06-10T09:29:48;6.90;;;6.00;;
56999;SDS011;42891;50.006;21.964;2023-06-10T09:33:51;9.15;;;6.70;;
56999;SDS011;42891;50.006;21.964;2023-06-10T09:37:56;8.40;;;6.10;;
56999;SDS011;42891;50.006;21.964;2023-06-10T09:41:57;7.22;;;6.20;;
56999;SDS011;42891;50.006;21.964;2023-06-10T09:45:57;11.27;;;6.90;;
56999;SDS011;42891;50.006;21.964;2023-06-10T09:49:58;6.93;;;6.22;;
56999;SDS011;42891;50.006;21.964;2023-06-10T09:53:59;6.05;;;5.45;;
56999;SDS011;42891;50.006;21.964;2023-06-10T09:58:03;7.75;;;5.93;;
56999;SDS011;42891;50.006;21.964;2023-06-10T10:02:03;6.43;;;5.70;;
56999;SDS011;42891;50.006;21.964;2023-06-10T10:06:04;10.00;;;5.47;;
56999;SDS011;42891;50.006;21.964;2023-06-10T10:10:05;8.57;;;6.03;;
56999;SDS011;42891;50.006;21.964;2023-06-10T10:14:07;5.63;;;5.13;;
56999;SDS011;42891;50.006;21.964;2023-06-10T10:18:09;5.95;;;5.25;;
56999;SDS011;42891;50.006;21.964;2023-06-10T10:22:10;6.97;;;5.50;;
56999;SDS011;42891;50.006;21.964;2023-06-10T10:26:21;6.85;;;5.20;;
56999;SDS011;42891;50.006;21.964;2023-06-10T10:30:25;5.25;;;4.55;;
56999;SDS011;42891;50.006;21.964;2023-06-10T10:34:30;6.05;;;5.45;;
56999;SDS011;42891;50.006;21.964;2023-06-10T10:38:37;7.20;;;4.95;;
56999;SDS011;42891;50.006;21.964;2023-06-10T10:42:37;7.15;;;4.70;;
56999;SDS011;42891;50.006;21.964;2023-06-10T10:46:49;8.13;;;5.32;;
56999;SDS011;42891;50.006;21.964;2023-06-10T10:50:56;9.30;;;4.88;;
56999;SDS011;42891;50.006;21.964;2023-06-10T10:54:57;5.10;;;4.60;;
56999;SDS011;42891;50.006;21.964;2023-06-10T10:59:07;5.50;;;4.97;;
56999;SDS011;42891;50.006;21.964;2023-06-10T11:03:08;5.63;;;5.03;;
56999;SDS011;42891;50.006;21.964;2023-06-10T11:07:12;4.90;;;4.50;;
56999;SDS011;42891;50.006;21.964;2023-06-10T11:15:24;8.27;;;4.80;;
56999;SDS011;42891;50.006;21.964;2023-06-10T11:19:35;5.93;;;4.60;;
56999;SDS011;42891;50.006;21.964;2023-06-10T11:23:38;6.90;;;4.90;;
56999;SDS011;42891;50.006;21.964;2023-06-10T11:27:40;5.43;;;4.93;;
56999;SDS011;42891;50.006;21.964;2023-06-10T11:31:42;5.85;;;4.53;;
56999;SDS011;42891;50.006;21.964;2023-06-10T11:35:44;5.22;;;4.72;;
56999;SDS011;42891;50.006;21.964;2023-06-10T11:39:44;5.63;;;5.10;;
56999;SDS011;42891;50.006;21.964;2023-06-10T11:43:45;7.72;;;5.30;;
56999;SDS011;42891;50.006;21.964;2023-06-10T11:47:58;6.53;;;5.10;;
56999;SDS011;42891;50.006;21.964;2023-06-10T11:52:00;7.53;;;5.03;;
56999;SDS011;42891;50.006;21.964;2023-06-10T11:56:00;7.30;;;5.43;;
56999;SDS011;42891;50.006;21.964;2023-06-10T12:00:05;7.35;;;5.25;;
56999;SDS011;42891;50.006;21.964;2023-06-10T12:04:08;10.25;;;5.25;;
56999;SDS011;42891;50.006;21.964;2023-06-10T12:08:09;7.90;;;5.22;;
56999;SDS011;42891;50.006;21.964;2023-06-10T12:12:10;7.68;;;5.45;;
56999;SDS011;42891;50.006;21.964;2023-06-10T12:16:12;7.15;;;5.20;;
56999;SDS011;42891;50.006;21.964;2023-06-10T12:20:25;6.88;;;4.57;;
56999;SDS011;42891;50.006;21.964;2023-06-10T12:24:32;6.03;;;4.95;;
56999;SDS011;42891;50.006;21.964;2023-06-10T12:28:32;5.30;;;4.80;;
56999;SDS011;42891;50.006;21.964;2023-06-10T12:36:39;11.70;;;5.20;;
56999;SDS011;42891;50.006;21.964;2023-06-10T12:40:47;9.23;;;4.85;;
56999;SDS011;42891;50.006;21.964;2023-06-10T12:44:52;5.00;;;4.40;;
56999;SDS011;42891;50.006;21.964;2023-06-10T12:48:54;5.57;;;5.07;;
56999;SDS011;42891;50.006;21.964;2023-06-10T12:52:55;4.75;;;4.22;;
56999;SDS011;42891;50.006;21.964;2023-06-10T12:56:55;6.43;;;4.57;;
56999;SDS011;42891;50.006;21.964;2023-06-10T13:00:56;6.60;;;4.53;;
56999;SDS011;42891;50.006;21.964;2023-06-10T13:04:56;5.32;;;4.70;;
56999;SDS011;42891;50.006;21.964;2023-06-10T13:08:57;7.07;;;4.70;;
56999;SDS011;42891;50.006;21.964;2023-06-10T13:12:57;6.67;;;4.80;;
56999;SDS011;42891;50.006;21.964;2023-06-10T13:16:57;5.50;;;4.67;;
56999;SDS011;42891;50.006;21.964;2023-06-10T13:20:57;7.30;;;4.72;;
56999;SDS011;42891;50.006;21.964;2023-06-10T13:24:58;5.73;;;5.10;;
56999;SDS011;42891;50.006;21.964;2023-06-10T13:28:59;11.02;;;4.97;;
56999;SDS011;42891;50.006;21.964;2023-06-10T13:33:00;5.15;;;4.57;;
56999;SDS011;42891;50.006;21.964;2023-06-10T13:37:00;4.82;;;4.38;;
56999;SDS011;42891;50.006;21.964;2023-06-10T13:41:01;7.90;;;4.63;;
56999;SDS011;42891;50.006;21.964;2023-06-10T13:45:02;6.72;;;4.80;;
56999;SDS011;42891;50.006;21.964;2023-06-10T13:49:04;5.80;;;4.50;;
56999;SDS011;42891;50.006;21.964;2023-06-10T13:53:04;5.57;;;4.70;;
56999;SDS011;42891;50.006;21.964;2023-06-10T13:57:04;5.93;;;4.73;;
56999;SDS011;42891;50.006;21.964;2023-06-10T14:01:05;5.43;;;4.40;;
56999;SDS011;42891;50.006;21.964;2023-06-10T14:05:06;5.50;;;4.47;;
56999;SDS011;42891;50.006;21.964;2023-06-10T14:09:08;7.53;;;4.68;;
56999;SDS011;42891;50.006;21.964;2023-06-10T14:13:08;5.32;;;4.47;;
56999;SDS011;42891;50.006;21.964;2023-06-10T14:17:09;4.93;;;4.43;;
56999;SDS011;42891;50.006;21.964;2023-06-10T14:21:09;7.43;;;5.00;;
56999;SDS011;42891;50.006;21.964;2023-06-10T14:25:09;4.83;;;4.30;;
56999;SDS011;42891;50.006;21.964;2023-06-10T14:29:11;6.93;;;4.40;;
56999;SDS011;42891;50.006;21.964;2023-06-10T14:33:14;5.10;;;4.60;;
56999;SDS011;42891;50.006;21.964;2023-06-10T14:37:14;4.47;;;4.05;;
56999;SDS011;42891;50.006;21.964;2023-06-10T14:41:14;6.20;;;4.57;;
56999;SDS011;42891;50.006;21.964;2023-06-10T14:45:15;6.95;;;5.20;;
56999;SDS011;42891;50.006;21.964;2023-06-10T14:49:15;7.30;;;4.30;;
56999;SDS011;42891;50.006;21.964;2023-06-10T14:53:16;4.50;;;3.97;;
56999;SDS011;42891;50.006;21.964;2023-06-10T14:57:17;5.00;;;4.10;;
56999;SDS011;42891;50.006;21.964;2023-06-10T15:01:18;6.73;;;4.13;;
56999;SDS011;42891;50.006;21.964;2023-06-10T15:05:18;6.00;;;3.90;;
56999;SDS011;42891;50.006;21.964;2023-06-10T15:09:21;5.07;;;4.15;;
56999;SDS011;42891;50.006;21.964;2023-06-10T15:13:21;4.30;;;3.85;;
56999;SDS011;42891;50.006;21.964;2023-06-10T15:17:22;7.47;;;3.93;;
56999;SDS011;42891;50.006;21.964;2023-06-10T15:21:22;5.23;;;3.90;;
56999;SDS011;42891;50.006;21.964;2023-06-10T15:25:22;7.53;;;3.70;;
56999;SDS011;42891;50.006;21.964;2023-06-10T15:29:23;7.87;;;3.60;;
56999;SDS011;42891;50.006;21.964;2023-06-10T15:33:23;5.47;;;3.83;;
56999;SDS011;42891;50.006;21.964;2023-06-10T15:37:23;5.00;;;4.50;;
56999;SDS011;42891;50.006;21.964;2023-06-10T15:41:24;5.90;;;3.65;;
56999;SDS011;42891;50.006;21.964;2023-06-10T15:45:25;4.40;;;4.00;;
56999;SDS011;42891;50.006;21.964;2023-06-10T15:49:25;5.17;;;3.67;;
56999;SDS011;42891;50.006;21.964;2023-06-10T15:53:26;5.00;;;3.70;;
56999;SDS011;42891;50.006;21.964;2023-06-10T15:57:26;5.73;;;4.03;;
56999;SDS011;42891;50.006;21.964;2023-06-10T16:01:26;5.70;;;4.47;;
56999;SDS011;42891;50.006;21.964;2023-06-10T16:05:26;5.00;;;4.10;;
56999;SDS011;42891;50.006;21.964;2023-06-10T16:09:27;5.00;;;4.55;;
56999;SDS011;42891;50.006;21.964;2023-06-10T16:13:27;5.47;;;4.47;;
56999;SDS011;42891;50.006;21.964;2023-06-10T16:17:27;7.10;;;4.55;;
56999;SDS011;42891;50.006;21.964;2023-06-10T16:21:28;5.53;;;4.50;;
56999;SDS011;42891;50.006;21.964;2023-06-10T16:25:28;8.40;;;4.53;;
56999;SDS011;42891;50.006;21.964;2023-06-10T16:29:29;5.00;;;4.35;;
56999;SDS011;42891;50.006;21.964;2023-06-10T16:33:30;7.73;;;4.60;;
56999;SDS011;42891;50.006;21.964;2023-06-10T16:37:30;7.40;;;4.70;;
56999;SDS011;42891;50.006;21.964;2023-06-10T16:41:30;4.40;;;4.00;;
56999;SDS011;42891;50.006;21.964;2023-06-10T16:45:31;6.83;;;4.77;;
56999;SDS011;42891;50.006;21.964;2023-06-10T16:49:31;6.40;;;5.57;;
56999;SDS011;42891;50.006;21.964;2023-06-10T16:53:32;5.65;;;4.65;;
56999;SDS011;42891;50.006;21.964;2023-06-10T16:57:32;5.53;;;4.80;;
56999;SDS011;42891;50.006;21.964;2023-06-10T17:01:33;5.07;;;4.38;;
56999;SDS011;42891;50.006;21.964;2023-06-10T17:05:33;6.00;;;4.77;;
56999;SDS011;42891;50.006;21.964;2023-06-10T17:09:33;6.80;;;4.93;;
56999;SDS011;42891;50.006;21.964;2023-06-10T17:13:33;5.40;;;4.87;;
56999;SDS011;42891;50.006;21.964;2023-06-10T17:17:34;5.63;;;5.03;;
56999;SDS011;42891;50.006;21.964;2023-06-10T17:21:34;7.55;;;4.95;;
56999;SDS011;42891;50.006;21.964;2023-06-10T17:25:36;5.15;;;4.38;;
56999;SDS011;42891;50.006;21.964;2023-06-10T17:29:36;6.32;;;4.82;;
56999;SDS011;42891;50.006;21.964;2023-06-10T17:33:39;9.73;;;5.15;;
56999;SDS011;42891;50.006;21.964;2023-06-10T17:37:39;6.97;;;5.18;;
56999;SDS011;42891;50.006;21.964;2023-06-10T17:41:39;8.50;;;6.03;;
56999;SDS011;42891;50.006;21.964;2023-06-10T17:45:40;6.93;;;5.40;;
56999;SDS011;42891;50.006;21.964;2023-06-10T17:49:40;6.57;;;5.43;;
56999;SDS011;42891;50.006;21.964;2023-06-10T17:53:40;8.20;;;5.60;;
56999;SDS011;42891;50.006;21.964;2023-06-10T17:57:41;6.95;;;5.82;;
56999;SDS011;42891;50.006;21.964;2023-06-10T18:01:41;8.02;;;5.75;;
56999;SDS011;42891;50.006;21.964;2023-06-10T18:05:41;6.95;;;6.13;;
56999;SDS011;42891;50.006;21.964;2023-06-10T18:09:42;8.73;;;6.40;;
56999;SDS011;42891;50.006;21.964;2023-06-10T18:13:42;9.27;;;6.70;;
56999;SDS011;42891;50.006;21.964;2023-06-10T18:17:42;7.77;;;6.87;;
56999;SDS011;42891;50.006;21.964;2023-06-10T18:21:43;7.78;;;6.80;;
56999;SDS011;42891;50.006;21.964;2023-06-10T18:25:43;7.88;;;7.07;;
56999;SDS011;42891;50.006;21.964;2023-06-10T18:29:44;8.45;;;6.97;;
56999;SDS011;42891;50.006;21.964;2023-06-10T18:33:44;10.55;;;7.20;;
56999;SDS011;42891;50.006;21.964;2023-06-10T18:37:44;8.20;;;6.65;;
56999;SDS011;42891;50.006;21.964;2023-06-10T18:41:45;9.13;;;7.40;;
56999;SDS011;42891;50.006;21.964;2023-06-10T18:45:45;8.05;;;7.22;;
56999;SDS011;42891;50.006;21.964;2023-06-10T18:49:46;15.60;;;8.03;;
56999;SDS011;42891;50.006;21.964;2023-06-10T18:53:46;8.93;;;7.60;;
56999;SDS011;42891;50.006;21.964;2023-06-10T18:57:47;8.00;;;6.90;;
56999;SDS011;42891;50.006;21.964;2023-06-10T19:01:47;9.68;;;7.20;;
56999;SDS011;42891;50.006;21.964;2023-06-10T19:05:47;8.43;;;7.20;;
56999;SDS011;42891;50.006;21.964;2023-06-10T19:09:48;8.45;;;7.53;;
56999;SDS011;42891;50.006;21.964;2023-06-10T19:13:48;8.38;;;7.43;;
56999;SDS011;42891;50.006;21.964;2023-06-10T19:17:49;9.18;;;8.05;;
56999;SDS011;42891;50.006;21.964;2023-06-10T19:21:50;10.02;;;7.32;;
56999;SDS011;42891;50.006;21.964;2023-06-10T19:25:51;9.57;;;7.22;;
56999;SDS011;42891;50.006;21.964;2023-06-10T19:29:51;9.00;;;7.47;;
56999;SDS011;42891;50.006;21.964;2023-06-10T19:33:51;8.65;;;6.78;;
56999;SDS011;42891;50.006;21.964;2023-06-10T19:37:52;10.00;;;7.88;;
56999;SDS011;42891;50.006;21.964;2023-06-10T19:41:52;9.40;;;7.43;;
56999;SDS011;42891;50.006;21.964;2023-06-10T19:45:52;7.87;;;7.07;;
56999;SDS011;42891;50.006;21.964;2023-06-10T19:49:53;9.23;;;7.47;;
56999;SDS011;42891;50.006;21.964;2023-06-10T19:53:53;10.43;;;8.70;;
56999;SDS011;42891;50.006;21.964;2023-06-10T19:57:53;10.18;;;8.13;;
56999;SDS011;42891;50.006;21.964;2023-06-10T20:01:55;9.15;;;8.23;;
56999;SDS011;42891;50.006;21.964;2023-06-10T20:05:55;10.07;;;7.85;;
56999;SDS011;42891;50.006;21.964;2023-06-10T20:09:55;9.48;;;8.48;;
56999;SDS011;42891;50.006;21.964;2023-06-10T20:13:56;10.43;;;8.80;;
56999;SDS011;42891;50.006;21.964;2023-06-10T20:17:56;9.87;;;8.73;;
56999;SDS011;42891;50.006;21.964;2023-06-10T20:21:57;10.10;;;7.32;;
56999;SDS011;42891;50.006;21.964;2023-06-10T20:25:59;6.72;;;6.07;;
56999;SDS011;42891;50.006;21.964;2023-06-10T20:29:59;6.55;;;5.47;;
56999;SDS011;42891;50.006;21.964;2023-06-10T20:33:59;6.50;;;5.40;;
56999;SDS011;42891;50.006;21.964;2023-06-10T20:38:00;6.38;;;4.65;;
56999;SDS011;42891;50.006;21.964;2023-06-10T20:42:00;4.82;;;4.35;;
56999;SDS011;42891;50.006;21.964;2023-06-10T20:46:00;4.72;;;3.85;;
56999;SDS011;42891;50.006;21.964;2023-06-10T20:50:01;4.43;;;4.03;;
56999;SDS011;42891;50.006;21.964;2023-06-10T20:54:02;4.93;;;3.85;;
56999;SDS011;42891;50.006;21.964;2023-06-10T20:58:03;10.32;;;4.28;;
56999;SDS011;42891;50.006;21.964;2023-06-10T21:02:03;7.32;;;3.88;;
56999;SDS011;42891;50.006;21.964;2023-06-10T21:06:04;4.78;;;4.35;;
56999;SDS011;42891;50.006;21.964;2023-06-10T21:10:05;4.30;;;3.90;;
56999;SDS011;42891;50.006;21.964;2023-06-10T21:14:05;4.88;;;4.28;;
56999;SDS011;42891;50.006;21.964;2023-06-10T21:18:06;6.20;;;4.28;;
56999;SDS011;42891;50.006;21.964;2023-06-10T21:22:06;6.50;;;4.70;;
56999;SDS011;42891;50.006;21.964;2023-06-10T21:26:06;5.80;;;4.78;;
56999;SDS011;42891;50.006;21.964;2023-06-10T21:30:07;5.47;;;4.35;;
56999;SDS011;42891;50.006;21.964;2023-06-10T21:34:07;6.60;;;4.45;;
56999;SDS011;42891;50.006;21.964;2023-06-10T21:38:08;7.17;;;5.43;;
56999;SDS011;42891;50.006;21.964;2023-06-10T21:42:08;5.65;;;5.03;;
56999;SDS011;42891;50.006;21.964;2023-06-10T21:46:08;6.60;;;5.13;;
56999;SDS011;42891;50.006;21.964;2023-06-10T21:50:09;6.22;;;5.35;;
56999;SDS011;42891;50.006;21.964;2023-06-10T21:54:09;7.22;;;5.10;;
56999;SDS011;42891;50.006;21.964;2023-06-10T21:58:10;5.68;;;5.18;;
56999;SDS011;42891;50.006;21.964;2023-06-10T22:02:10;6.05;;;5.18;;
56999;SDS011;42891;50.006;21.964;2023-06-10T22:06:10;6.65;;;5.30;;
56999;SDS011;42891;50.006;21.964;2023-06-10T22:10:11;9.73;;;6.10;;
56999;SDS011;42891;50.006;21.964;2023-06-10T22:14:11;7.63;;;5.85;;
56999;SDS011;42891;50.006;21.964;2023-06-10T22:18:12;9.17;;;6.47;;
56999;SDS011;42891;50.006;21.964;2023-06-10T22:22:12;8.32;;;6.13;;
56999;SDS011;42891;50.006;21.964;2023-06-10T22:26:12;7.00;;;6.30;;
56999;SDS011;42891;50.006;21.964;2023-06-10T22:30:13;10.63;;;6.82;;
56999;SDS011;42891;50.006;21.964;2023-06-10T22:34:14;7.38;;;6.32;;
56999;SDS011;42891;50.006;21.964;2023-06-10T22:38:15;7.63;;;6.40;;
56999;SDS011;42891;50.006;21.964;2023-06-10T22:42:15;8.07;;;7.28;;
56999;SDS011;42891;50.006;21.964;2023-06-10T22:46:15;7.28;;;6.55;;
56999;SDS011;42891;50.006;21.964;2023-06-10T22:50:16;9.50;;;8.00;;
56999;SDS011;42891;50.006;21.964;2023-06-10T22:54:16;9.55;;;7.40;;
56999;SDS011;42891;50.006;21.964;2023-06-10T22:58:17;9.27;;;8.27;;
56999;SDS011;42891;50.006;21.964;2023-06-10T23:02:17;8.80;;;7.85;;
56999;SDS011;42891;50.006;21.964;2023-06-10T23:06:17;10.00;;;8.95;;
56999;SDS011;42891;50.006;21.964;2023-06-10T23:10:18;10.55;;;8.38;;
56999;SDS011;42891;50.006;21.964;2023-06-10T23:14:18;10.75;;;7.80;;
56999;SDS011;42891;50.006;21.964;2023-06-10T23:18:18;12.18;;;8.40;;
56999;SDS011;42891;50.006;21.964;2023-06-10T23:22:19;9.48;;;8.55;;
56999;SDS011;42891;50.006;21.964;2023-06-10T23:26:19;10.35;;;8.80;;
56999;SDS011;42891;50.006;21.964;2023-06-10T23:30:20;10.35;;;8.88;;
56999;SDS011;42891;50.006;21.964;2023-06-10T23:34:21;10.07;;;8.50;;
56999;SDS011;42891;50.006;21.964;2023-06-10T23:38:21;10.15;;;9.13;;
56999;SDS011;42891;50.006;21.964;2023-06-10T23:42:22;9.90;;;8.90;;
56999;SDS011;42891;50.006;21.964;2023-06-10T23:46:24;10.70;;;9.60;;
56999;SDS011;42891;50.006;21.964;2023-06-10T23:50:25;11.77;;;10.32;;